Holland, Virginia
Current Conditions -  °F | °C
As of 8:35 PM on Wednesday 22 Oct 2014 (Local Time) from KFKN Reporting Station
Overcast Overcast  
Wind Chill: 55°   Ceiling: 3600
Heat Index: 55°   Visibility: 10mi
Dew Point: 48°   Wind: 8mph
Humidity: 77%   Direction: 320°NW
Pressure: 29.94"   Gusts: 17mph
Location:  36.6353°N, 76.8003°W
Report Text: KFKN 230035Z AUTO 32007G15KT 10SM SCT028 OVC036 13/09 A2994 RMK AO1
Loading
Personal Weather Stations






























Interactive Weather Map
Tropical Storm Tracking
New forecast layout! Learn more

10-Day Weather Forecast

Advertisements
Track Severe Weather on mobile